sensor_id;sensor_type;location;lat;lon;timestamp;P1;durP1;ratioP1;P2;durP2;ratioP2
3901;SDS011;1966;49.908;9.156;2022-11-20T00:03:46;33.30;;;18.30;;
3901;SDS011;1966;49.908;9.156;2022-11-20T00:08:46;32.97;;;16.33;;
3901;SDS011;1966;49.908;9.156;2022-11-20T00:13:47;38.10;;;18.67;;
3901;SDS011;1966;49.908;9.156;2022-11-20T00:18:48;34.80;;;17.43;;
3901;SDS011;1966;49.908;9.156;2022-11-20T00:23:47;34.00;;;18.17;;
3901;SDS011;1966;49.908;9.156;2022-11-20T00:28:49;30.90;;;16.97;;
3901;SDS011;1966;49.908;9.156;2022-11-20T00:33:50;32.73;;;17.20;;
3901;SDS011;1966;49.908;9.156;2022-11-20T00:38:50;36.30;;;18.17;;
3901;SDS011;1966;49.908;9.156;2022-11-20T00:43:50;34.93;;;18.00;;
3901;SDS011;1966;49.908;9.156;2022-11-20T00:48:51;37.47;;;17.90;;
3901;SDS011;1966;49.908;9.156;2022-11-20T00:53:51;34.40;;;16.70;;
3901;SDS011;1966;49.908;9.156;2022-11-20T00:58:50;36.43;;;18.50;;
3901;SDS011;1966;49.908;9.156;2022-11-20T01:03:50;32.33;;;17.37;;
3901;SDS011;1966;49.908;9.156;2022-11-20T01:08:52;32.83;;;17.07;;
3901;SDS011;1966;49.908;9.156;2022-11-20T01:13:52;35.67;;;16.77;;
3901;SDS011;1966;49.908;9.156;2022-11-20T01:18:53;32.13;;;16.13;;
3901;SDS011;1966;49.908;9.156;2022-11-20T01:23:54;34.63;;;16.47;;
3901;SDS011;1966;49.908;9.156;2022-11-20T01:28:53;35.00;;;18.70;;
3901;SDS011;1966;49.908;9.156;2022-11-20T01:33:54;37.03;;;19.03;;
3901;SDS011;1966;49.908;9.156;2022-11-20T01:38:55;33.67;;;16.80;;
3901;SDS011;1966;49.908;9.156;2022-11-20T01:43:55;31.00;;;15.63;;
3901;SDS011;1966;49.908;9.156;2022-11-20T01:48:55;30.73;;;15.90;;
3901;SDS011;1966;49.908;9.156;2022-11-20T01:53:59;32.37;;;15.73;;
3901;SDS011;1966;49.908;9.156;2022-11-20T01:58:59;29.60;;;15.00;;
3901;SDS011;1966;49.908;9.156;2022-11-20T02:04:00;31.33;;;15.23;;
3901;SDS011;1966;49.908;9.156;2022-11-20T02:09:01;31.27;;;15.27;;
3901;SDS011;1966;49.908;9.156;2022-11-20T02:14:00;31.13;;;15.90;;
3901;SDS011;1966;49.908;9.156;2022-11-20T02:19:00;32.63;;;15.17;;
3901;SDS011;1966;49.908;9.156;2022-11-20T02:24:05;31.07;;;15.97;;
3901;SDS011;1966;49.908;9.156;2022-11-20T02:29:05;32.10;;;16.30;;
3901;SDS011;1966;49.908;9.156;2022-11-20T02:34:04;31.20;;;16.83;;
3901;SDS011;1966;49.908;9.156;2022-11-20T02:39:05;26.53;;;14.10;;
3901;SDS011;1966;49.908;9.156;2022-11-20T02:44:05;27.00;;;13.60;;
3901;SDS011;1966;49.908;9.156;2022-11-20T02:49:05;24.50;;;13.80;;
3901;SDS011;1966;49.908;9.156;2022-11-20T02:54:05;29.17;;;15.13;;
3901;SDS011;1966;49.908;9.156;2022-11-20T02:59:04;24.43;;;13.07;;
3901;SDS011;1966;49.908;9.156;2022-11-20T03:04:04;27.70;;;13.67;;
3901;SDS011;1966;49.908;9.156;2022-11-20T03:09:03;26.73;;;13.30;;
3901;SDS011;1966;49.908;9.156;2022-11-20T03:14:04;27.53;;;13.93;;
3901;SDS011;1966;49.908;9.156;2022-11-20T03:19:03;24.80;;;13.23;;
3901;SDS011;1966;49.908;9.156;2022-11-20T03:24:03;26.67;;;13.20;;
3901;SDS011;1966;49.908;9.156;2022-11-20T03:29:03;34.10;;;14.23;;
3901;SDS011;1966;49.908;9.156;2022-11-20T03:34:04;27.03;;;13.73;;
3901;SDS011;1966;49.908;9.156;2022-11-20T03:39:03;25.07;;;13.77;;
3901;SDS011;1966;49.908;9.156;2022-11-20T03:44:03;22.00;;;13.00;;
3901;SDS011;1966;49.908;9.156;2022-11-20T03:49:05;24.00;;;13.40;;
3901;SDS011;1966;49.908;9.156;2022-11-20T03:54:05;23.60;;;12.77;;
3901;SDS011;1966;49.908;9.156;2022-11-20T03:59:04;25.50;;;13.30;;
3901;SDS011;1966;49.908;9.156;2022-11-20T04:04:05;25.07;;;13.47;;
3901;SDS011;1966;49.908;9.156;2022-11-20T04:09:05;23.33;;;12.63;;
3901;SDS011;1966;49.908;9.156;2022-11-20T04:14:05;27.23;;;14.13;;
3901;SDS011;1966;49.908;9.156;2022-11-20T04:19:08;24.03;;;13.17;;
3901;SDS011;1966;49.908;9.156;2022-11-20T04:24:08;30.97;;;13.67;;
3901;SDS011;1966;49.908;9.156;2022-11-20T04:29:09;24.97;;;12.30;;
3901;SDS011;1966;49.908;9.156;2022-11-20T04:34:11;27.70;;;14.67;;
3901;SDS011;1966;49.908;9.156;2022-11-20T04:39:11;27.47;;;13.93;;
3901;SDS011;1966;49.908;9.156;2022-11-20T04:44:11;24.70;;;12.70;;
3901;SDS011;1966;49.908;9.156;2022-11-20T04:49:11;23.27;;;12.20;;
3901;SDS011;1966;49.908;9.156;2022-11-20T04:54:11;21.50;;;12.07;;
3901;SDS011;1966;49.908;9.156;2022-11-20T04:59:10;28.23;;;13.83;;
3901;SDS011;1966;49.908;9.156;2022-11-20T05:04:09;24.30;;;13.43;;
3901;SDS011;1966;49.908;9.156;2022-11-20T05:09:11;26.83;;;13.97;;
3901;SDS011;1966;49.908;9.156;2022-11-20T05:14:10;25.17;;;14.00;;
3901;SDS011;1966;49.908;9.156;2022-11-20T05:19:09;26.33;;;13.73;;
3901;SDS011;1966;49.908;9.156;2022-11-20T05:24:10;21.80;;;11.60;;
3901;SDS011;1966;49.908;9.156;2022-11-20T05:29:10;21.20;;;11.97;;
3901;SDS011;1966;49.908;9.156;2022-11-20T05:34:10;21.13;;;12.50;;
3901;SDS011;1966;49.908;9.156;2022-11-20T05:39:10;26.80;;;13.33;;
3901;SDS011;1966;49.908;9.156;2022-11-20T05:44:10;24.47;;;13.70;;
3901;SDS011;1966;49.908;9.156;2022-11-20T05:49:09;26.10;;;13.87;;
3901;SDS011;1966;49.908;9.156;2022-11-20T05:54:08;26.47;;;14.60;;
3901;SDS011;1966;49.908;9.156;2022-11-20T05:59:09;27.07;;;14.70;;
3901;SDS011;1966;49.908;9.156;2022-11-20T06:04:08;26.87;;;13.77;;
3901;SDS011;1966;49.908;9.156;2022-11-20T06:09:08;27.90;;;14.33;;
3901;SDS011;1966;49.908;9.156;2022-11-20T06:14:07;23.60;;;12.90;;
3901;SDS011;1966;49.908;9.156;2022-11-20T06:19:08;26.60;;;12.90;;
3901;SDS011;1966;49.908;9.156;2022-11-20T06:24:08;21.03;;;11.43;;
3901;SDS011;1966;49.908;9.156;2022-11-20T06:29:08;23.63;;;12.20;;
3901;SDS011;1966;49.908;9.156;2022-11-20T06:34:08;18.50;;;11.07;;
3901;SDS011;1966;49.908;9.156;2022-11-20T06:39:08;16.47;;;10.00;;
3901;SDS011;1966;49.908;9.156;2022-11-20T06:44:07;21.10;;;11.40;;
3901;SDS011;1966;49.908;9.156;2022-11-20T06:49:06;21.90;;;10.47;;
3901;SDS011;1966;49.908;9.156;2022-11-20T06:54:07;21.43;;;11.60;;
3901;SDS011;1966;49.908;9.156;2022-11-20T06:59:06;21.40;;;11.03;;
3901;SDS011;1966;49.908;9.156;2022-11-20T07:04:06;20.53;;;11.30;;
3901;SDS011;1966;49.908;9.156;2022-11-20T07:09:06;24.87;;;13.50;;
3901;SDS011;1966;49.908;9.156;2022-11-20T07:14:06;23.27;;;13.10;;
3901;SDS011;1966;49.908;9.156;2022-11-20T07:19:05;26.50;;;14.13;;
3901;SDS011;1966;49.908;9.156;2022-11-20T07:24:04;27.17;;;16.97;;
3901;SDS011;1966;49.908;9.156;2022-11-20T07:29:05;31.83;;;14.97;;
3901;SDS011;1966;49.908;9.156;2022-11-20T07:34:04;23.03;;;12.90;;
3901;SDS011;1966;49.908;9.156;2022-11-20T07:39:04;25.57;;;12.53;;
3901;SDS011;1966;49.908;9.156;2022-11-20T07:44:03;20.63;;;12.43;;
3901;SDS011;1966;49.908;9.156;2022-11-20T07:49:04;21.33;;;11.70;;
3901;SDS011;1966;49.908;9.156;2022-11-20T07:54:03;21.07;;;12.00;;
3901;SDS011;1966;49.908;9.156;2022-11-20T07:59:03;18.53;;;10.60;;
3901;SDS011;1966;49.908;9.156;2022-11-20T08:04:03;17.97;;;9.63;;
3901;SDS011;1966;49.908;9.156;2022-11-20T08:09:03;17.57;;;9.93;;
3901;SDS011;1966;49.908;9.156;2022-11-20T08:14:02;21.60;;;10.30;;
3901;SDS011;1966;49.908;9.156;2022-11-20T08:19:15;21.90;;;11.03;;
3901;SDS011;1966;49.908;9.156;2022-11-20T08:24:15;18.13;;;10.50;;
3901;SDS011;1966;49.908;9.156;2022-11-20T08:29:14;16.40;;;9.90;;
3901;SDS011;1966;49.908;9.156;2022-11-20T08:34:15;16.50;;;8.93;;
3901;SDS011;1966;49.908;9.156;2022-11-20T08:39:14;20.73;;;10.73;;
3901;SDS011;1966;49.908;9.156;2022-11-20T08:44:13;17.70;;;10.23;;
3901;SDS011;1966;49.908;9.156;2022-11-20T08:49:14;17.30;;;10.27;;
3901;SDS011;1966;49.908;9.156;2022-11-20T08:54:14;18.33;;;11.13;;
3901;SDS011;1966;49.908;9.156;2022-11-20T08:59:13;18.97;;;11.00;;
3901;SDS011;1966;49.908;9.156;2022-11-20T09:04:12;19.53;;;11.60;;
3901;SDS011;1966;49.908;9.156;2022-11-20T09:09:13;22.87;;;12.17;;
3901;SDS011;1966;49.908;9.156;2022-11-20T09:14:13;20.27;;;11.33;;
3901;SDS011;1966;49.908;9.156;2022-11-20T09:19:12;18.67;;;10.03;;
3901;SDS011;1966;49.908;9.156;2022-11-20T09:24:11;13.40;;;8.67;;
3901;SDS011;1966;49.908;9.156;2022-11-20T09:29:12;20.23;;;12.87;;
3901;SDS011;1966;49.908;9.156;2022-11-20T09:34:11;14.93;;;9.03;;
3901;SDS011;1966;49.908;9.156;2022-11-20T09:39:10;17.13;;;10.10;;
3901;SDS011;1966;49.908;9.156;2022-11-20T09:44:13;16.10;;;11.40;;
3901;SDS011;1966;49.908;9.156;2022-11-20T09:49:21;18.60;;;11.00;;
3901;SDS011;1966;49.908;9.156;2022-11-20T09:54:23;17.23;;;11.50;;
3901;SDS011;1966;49.908;9.156;2022-11-20T09:59:37;15.13;;;10.30;;
3901;SDS011;1966;49.908;9.156;2022-11-20T10:04:37;12.50;;;8.73;;
3901;SDS011;1966;49.908;9.156;2022-11-20T10:09:43;16.83;;;10.10;;
3901;SDS011;1966;49.908;9.156;2022-11-20T10:14:52;18.50;;;12.90;;
3901;SDS011;1966;49.908;9.156;2022-11-20T10:19:56;22.40;;;13.73;;
3901;SDS011;1966;49.908;9.156;2022-11-20T10:25:00;21.60;;;13.03;;
3901;SDS011;1966;49.908;9.156;2022-11-20T10:30:06;19.37;;;13.03;;
3901;SDS011;1966;49.908;9.156;2022-11-20T10:35:14;17.17;;;11.37;;
3901;SDS011;1966;49.908;9.156;2022-11-20T10:40:18;14.43;;;9.90;;
3901;SDS011;1966;49.908;9.156;2022-11-20T10:45:21;13.83;;;10.17;;
3901;SDS011;1966;49.908;9.156;2022-11-20T10:50:26;18.50;;;11.47;;
3901;SDS011;1966;49.908;9.156;2022-11-20T10:55:30;18.00;;;11.30;;
3901;SDS011;1966;49.908;9.156;2022-11-20T11:00:33;14.60;;;10.60;;
3901;SDS011;1966;49.908;9.156;2022-11-20T11:05:34;19.30;;;12.60;;
3901;SDS011;1966;49.908;9.156;2022-11-20T11:10:36;18.53;;;12.23;;
3901;SDS011;1966;49.908;9.156;2022-11-20T11:15:40;17.23;;;11.37;;
3901;SDS011;1966;49.908;9.156;2022-11-20T11:20:40;15.63;;;10.77;;
3901;SDS011;1966;49.908;9.156;2022-11-20T11:25:56;17.53;;;11.30;;
3901;SDS011;1966;49.908;9.156;2022-11-20T11:30:57;18.23;;;11.17;;
3901;SDS011;1966;49.908;9.156;2022-11-20T11:35:56;17.27;;;10.90;;
3901;SDS011;1966;49.908;9.156;2022-11-20T11:40:57;16.53;;;10.23;;
3901;SDS011;1966;49.908;9.156;2022-11-20T11:45:57;16.67;;;10.63;;
3901;SDS011;1966;49.908;9.156;2022-11-20T11:50:57;18.20;;;12.27;;
3901;SDS011;1966;49.908;9.156;2022-11-20T11:55:56;21.80;;;12.50;;
3901;SDS011;1966;49.908;9.156;2022-11-20T12:01:00;19.50;;;12.27;;
3901;SDS011;1966;49.908;9.156;2022-11-20T12:06:04;20.00;;;12.30;;
3901;SDS011;1966;49.908;9.156;2022-11-20T12:11:05;16.67;;;10.40;;
3901;SDS011;1966;49.908;9.156;2022-11-20T12:16:09;20.73;;;12.97;;
3901;SDS011;1966;49.908;9.156;2022-11-20T12:21:12;26.47;;;17.90;;
3901;SDS011;1966;49.908;9.156;2022-11-20T12:26:18;20.57;;;12.97;;
3901;SDS011;1966;49.908;9.156;2022-11-20T12:31:26;19.23;;;13.27;;
3901;SDS011;1966;49.908;9.156;2022-11-20T12:36:32;19.53;;;12.77;;
3901;SDS011;1966;49.908;9.156;2022-11-20T12:41:42;16.17;;;10.80;;
3901;SDS011;1966;49.908;9.156;2022-11-20T12:47:04;17.83;;;12.03;;
3901;SDS011;1966;49.908;9.156;2022-11-20T12:52:11;19.70;;;12.23;;
3901;SDS011;1966;49.908;9.156;2022-11-20T12:57:15;22.90;;;12.60;;
3901;SDS011;1966;49.908;9.156;2022-11-20T13:02:20;17.13;;;11.10;;
3901;SDS011;1966;49.908;9.156;2022-11-20T13:07:23;24.00;;;12.00;;
3901;SDS011;1966;49.908;9.156;2022-11-20T13:12:24;13.13;;;9.40;;
3901;SDS011;1966;49.908;9.156;2022-11-20T13:17:28;14.50;;;10.57;;
3901;SDS011;1966;49.908;9.156;2022-11-20T13:22:42;15.27;;;10.00;;
3901;SDS011;1966;49.908;9.156;2022-11-20T13:27:46;13.97;;;10.10;;
3901;SDS011;1966;49.908;9.156;2022-11-20T13:32:51;13.83;;;10.00;;
3901;SDS011;1966;49.908;9.156;2022-11-20T13:37:59;13.73;;;9.83;;
3901;SDS011;1966;49.908;9.156;2022-11-20T13:43:04;13.30;;;9.20;;
3901;SDS011;1966;49.908;9.156;2022-11-20T13:48:18;14.03;;;10.70;;
3901;SDS011;1966;49.908;9.156;2022-11-20T13:53:23;18.93;;;10.53;;
3901;SDS011;1966;49.908;9.156;2022-11-20T13:58:27;30.70;;;15.93;;
3901;SDS011;1966;49.908;9.156;2022-11-20T14:03:31;26.77;;;14.73;;
3901;SDS011;1966;49.908;9.156;2022-11-20T14:08:35;21.80;;;13.50;;
3901;SDS011;1966;49.908;9.156;2022-11-20T14:13:36;18.83;;;12.80;;
3901;SDS011;1966;49.908;9.156;2022-11-20T14:18:36;25.23;;;16.77;;
3901;SDS011;1966;49.908;9.156;2022-11-20T14:23:36;20.80;;;13.40;;
3901;SDS011;1966;49.908;9.156;2022-11-20T14:28:37;17.70;;;11.17;;
3901;SDS011;1966;49.908;9.156;2022-11-20T14:33:37;14.40;;;10.60;;
3901;SDS011;1966;49.908;9.156;2022-11-20T14:38:37;11.70;;;9.07;;
3901;SDS011;1966;49.908;9.156;2022-11-20T14:43:38;12.20;;;8.63;;
3901;SDS011;1966;49.908;9.156;2022-11-20T14:48:40;12.77;;;7.87;;
3901;SDS011;1966;49.908;9.156;2022-11-20T14:53:40;19.80;;;11.37;;
3901;SDS011;1966;49.908;9.156;2022-11-20T14:58:39;15.37;;;10.33;;
3901;SDS011;1966;49.908;9.156;2022-11-20T15:03:40;14.80;;;9.80;;
3901;SDS011;1966;49.908;9.156;2022-11-20T15:08:49;13.87;;;9.37;;
3901;SDS011;1966;49.908;9.156;2022-11-20T15:13:49;17.00;;;11.40;;
3901;SDS011;1966;49.908;9.156;2022-11-20T15:18:50;17.47;;;12.33;;
3901;SDS011;1966;49.908;9.156;2022-11-20T15:23:49;16.57;;;11.40;;
3901;SDS011;1966;49.908;9.156;2022-11-20T15:28:49;15.40;;;10.63;;
3901;SDS011;1966;49.908;9.156;2022-11-20T15:33:49;15.43;;;11.20;;
3901;SDS011;1966;49.908;9.156;2022-11-20T15:38:49;19.33;;;11.40;;
3901;SDS011;1966;49.908;9.156;2022-11-20T15:43:48;17.30;;;11.57;;
3901;SDS011;1966;49.908;9.156;2022-11-20T15:48:49;28.50;;;18.00;;
3901;SDS011;1966;49.908;9.156;2022-11-20T15:53:51;34.50;;;20.70;;
3901;SDS011;1966;49.908;9.156;2022-11-20T15:58:50;39.70;;;21.97;;
3901;SDS011;1966;49.908;9.156;2022-11-20T16:03:49;27.50;;;17.53;;
3901;SDS011;1966;49.908;9.156;2022-11-20T16:08:51;28.00;;;17.53;;
3901;SDS011;1966;49.908;9.156;2022-11-20T16:13:50;24.83;;;15.47;;
3901;SDS011;1966;49.908;9.156;2022-11-20T16:19:09;32.40;;;18.57;;
3901;SDS011;1966;49.908;9.156;2022-11-20T16:24:11;30.43;;;17.87;;
3901;SDS011;1966;49.908;9.156;2022-11-20T16:29:10;32.90;;;19.87;;
3901;SDS011;1966;49.908;9.156;2022-11-20T16:34:10;31.40;;;17.80;;
3901;SDS011;1966;49.908;9.156;2022-11-20T16:39:10;25.67;;;16.37;;
3901;SDS011;1966;49.908;9.156;2022-11-20T16:44:10;25.10;;;15.17;;
3901;SDS011;1966;49.908;9.156;2022-11-20T16:49:11;28.07;;;17.33;;
3901;SDS011;1966;49.908;9.156;2022-11-20T16:54:11;26.27;;;16.80;;
3901;SDS011;1966;49.908;9.156;2022-11-20T16:59:12;27.37;;;17.30;;
3901;SDS011;1966;49.908;9.156;2022-11-20T17:04:11;29.43;;;17.90;;
3901;SDS011;1966;49.908;9.156;2022-11-20T17:09:12;33.90;;;21.10;;
3901;SDS011;1966;49.908;9.156;2022-11-20T17:14:11;28.47;;;18.50;;
3901;SDS011;1966;49.908;9.156;2022-11-20T17:19:11;26.60;;;17.43;;
3901;SDS011;1966;49.908;9.156;2022-11-20T17:24:12;24.70;;;16.47;;
3901;SDS011;1966;49.908;9.156;2022-11-20T17:29:13;24.80;;;15.83;;
3901;SDS011;1966;49.908;9.156;2022-11-20T17:34:14;31.00;;;17.70;;
3901;SDS011;1966;49.908;9.156;2022-11-20T17:39:15;35.73;;;19.17;;
3901;SDS011;1966;49.908;9.156;2022-11-20T17:44:15;37.00;;;21.63;;
3901;SDS011;1966;49.908;9.156;2022-11-20T17:49:14;34.67;;;22.00;;
3901;SDS011;1966;49.908;9.156;2022-11-20T17:54:15;32.90;;;20.87;;
3901;SDS011;1966;49.908;9.156;2022-11-20T17:59:15;35.67;;;20.90;;
3901;SDS011;1966;49.908;9.156;2022-11-20T18:04:15;27.63;;;16.63;;
3901;SDS011;1966;49.908;9.156;2022-11-20T18:09:16;36.77;;;20.13;;
3901;SDS011;1966;49.908;9.156;2022-11-20T18:14:16;26.90;;;14.73;;
3901;SDS011;1966;49.908;9.156;2022-11-20T18:19:27;16.83;;;11.00;;
3901;SDS011;1966;49.908;9.156;2022-11-20T18:24:28;22.97;;;13.70;;
3901;SDS011;1966;49.908;9.156;2022-11-20T18:29:27;18.00;;;12.63;;
3901;SDS011;1966;49.908;9.156;2022-11-20T18:34:28;17.00;;;11.60;;
3901;SDS011;1966;49.908;9.156;2022-11-20T18:39:28;16.57;;;11.00;;
3901;SDS011;1966;49.908;9.156;2022-11-20T18:44:29;14.30;;;10.30;;
3901;SDS011;1966;49.908;9.156;2022-11-20T18:49:46;15.80;;;9.00;;
3901;SDS011;1966;49.908;9.156;2022-11-20T18:54:49;14.07;;;8.27;;
3901;SDS011;1966;49.908;9.156;2022-11-20T18:59:48;15.07;;;8.63;;
3901;SDS011;1966;49.908;9.156;2022-11-20T19:04:48;13.37;;;8.47;;
3901;SDS011;1966;49.908;9.156;2022-11-20T19:09:49;10.77;;;7.33;;
3901;SDS011;1966;49.908;9.156;2022-11-20T19:14:50;7.37;;;6.33;;
3901;SDS011;1966;49.908;9.156;2022-11-20T19:19:49;9.40;;;4.43;;
3901;SDS011;1966;49.908;9.156;2022-11-20T19:24:50;7.50;;;5.93;;
3901;SDS011;1966;49.908;9.156;2022-11-20T19:29:49;6.50;;;3.90;;
3901;SDS011;1966;49.908;9.156;2022-11-20T19:34:49;6.03;;;4.97;;
3901;SDS011;1966;49.908;9.156;2022-11-20T19:39:48;6.30;;;4.47;;
3901;SDS011;1966;49.908;9.156;2022-11-20T19:44:49;8.17;;;4.20;;
3901;SDS011;1966;49.908;9.156;2022-11-20T19:49:48;7.83;;;5.00;;
3901;SDS011;1966;49.908;9.156;2022-11-20T19:54:47;6.53;;;4.43;;
3901;SDS011;1966;49.908;9.156;2022-11-20T19:59:46;4.37;;;3.70;;
3901;SDS011;1966;49.908;9.156;2022-11-20T20:04:47;5.60;;;3.60;;
3901;SDS011;1966;49.908;9.156;2022-11-20T20:09:46;4.43;;;2.70;;
3901;SDS011;1966;49.908;9.156;2022-11-20T20:14:46;3.57;;;2.33;;
3901;SDS011;1966;49.908;9.156;2022-11-20T20:19:45;3.87;;;3.10;;
3901;SDS011;1966;49.908;9.156;2022-11-20T20:24:46;3.27;;;2.97;;
3901;SDS011;1966;49.908;9.156;2022-11-20T20:29:45;4.43;;;2.50;;
3901;SDS011;1966;49.908;9.156;2022-11-20T20:34:44;3.03;;;2.73;;
3901;SDS011;1966;49.908;9.156;2022-11-20T20:39:45;3.13;;;2.83;;
3901;SDS011;1966;49.908;9.156;2022-11-20T20:44:44;2.40;;;2.10;;
3901;SDS011;1966;49.908;9.156;2022-11-20T20:50:01;3.90;;;3.50;;
3901;SDS011;1966;49.908;9.156;2022-11-20T20:55:02;4.27;;;3.40;;
3901;SDS011;1966;49.908;9.156;2022-11-20T21:00:02;5.37;;;3.30;;
3901;SDS011;1966;49.908;9.156;2022-11-20T21:05:02;3.40;;;2.80;;
3901;SDS011;1966;49.908;9.156;2022-11-20T21:10:02;3.30;;;3.10;;
3901;SDS011;1966;49.908;9.156;2022-11-20T21:15:02;4.03;;;3.63;;
3901;SDS011;1966;49.908;9.156;2022-11-20T21:20:01;4.27;;;3.50;;
3901;SDS011;1966;49.908;9.156;2022-11-20T21:25:24;3.40;;;3.07;;
3901;SDS011;1966;49.908;9.156;2022-11-20T21:30:23;3.47;;;3.17;;
3901;SDS011;1966;49.908;9.156;2022-11-20T21:35:22;4.17;;;3.23;;
3901;SDS011;1966;49.908;9.156;2022-11-20T21:40:21;4.17;;;3.10;;
3901;SDS011;1966;49.908;9.156;2022-11-20T21:45:22;4.07;;;2.80;;
3901;SDS011;1966;49.908;9.156;2022-11-20T21:50:21;3.13;;;2.83;;
3901;SDS011;1966;49.908;9.156;2022-11-20T21:55:21;2.90;;;2.70;;
3901;SDS011;1966;49.908;9.156;2022-11-20T22:00:20;2.90;;;2.70;;
3901;SDS011;1966;49.908;9.156;2022-11-20T22:05:21;4.80;;;3.97;;
3901;SDS011;1966;49.908;9.156;2022-11-20T22:10:20;4.50;;;4.07;;
3901;SDS011;1966;49.908;9.156;2022-11-20T22:15:19;4.07;;;3.67;;
3901;SDS011;1966;49.908;9.156;2022-11-20T22:20:20;4.23;;;3.73;;
3901;SDS011;1966;49.908;9.156;2022-11-20T22:25:19;7.27;;;4.70;;
3901;SDS011;1966;49.908;9.156;2022-11-20T22:30:19;7.27;;;4.40;;
3901;SDS011;1966;49.908;9.156;2022-11-20T22:35:18;9.73;;;4.50;;
3901;SDS011;1966;49.908;9.156;2022-11-20T22:40:19;3.97;;;3.57;;
3901;SDS011;1966;49.908;9.156;2022-11-20T22:45:18;5.73;;;3.87;;
3901;SDS011;1966;49.908;9.156;2022-11-20T22:50:18;5.03;;;2.80;;
3901;SDS011;1966;49.908;9.156;2022-11-20T22:55:18;6.10;;;2.57;;
3901;SDS011;1966;49.908;9.156;2022-11-20T23:00:18;3.40;;;2.60;;
3901;SDS011;1966;49.908;9.156;2022-11-20T23:05:17;6.00;;;2.87;;
3901;SDS011;1966;49.908;9.156;2022-11-20T23:10:18;3.30;;;2.53;;
3901;SDS011;1966;49.908;9.156;2022-11-20T23:15:18;8.77;;;2.77;;
3901;SDS011;1966;49.908;9.156;2022-11-20T23:20:17;5.50;;;2.60;;
3901;SDS011;1966;49.908;9.156;2022-11-20T23:25:18;5.20;;;2.30;;
3901;SDS011;1966;49.908;9.156;2022-11-20T23:30:17;6.53;;;2.80;;
3901;SDS011;1966;49.908;9.156;2022-11-20T23:35:17;4.60;;;2.43;;
3901;SDS011;1966;49.908;9.156;2022-11-20T23:40:16;3.00;;;2.20;;
3901;SDS011;1966;49.908;9.156;2022-11-20T23:45:17;5.27;;;2.60;;
3901;SDS011;1966;49.908;9.156;2022-11-20T23:50:16;4.20;;;2.60;;
3901;SDS011;1966;49.908;9.156;2022-11-20T23:55:16;6.90;;;2.90;;
